Time;durP1;ratioP1;P1;durP2;ratioP2;P2;SDS_P1;SDS_P2;PMS_P1;PMS_P2;Temp;Humidity;BMP_temperature;BMP_pressure;BME280_temperature;BME280_humidity;BME280_pressure;Samples;Min_cycle;Max_cycle;Signal;HPM_P1;HPM_P2
2023/10/01 00:00:11;;;;;;;10.50;4.78;;;;;;;;;;4954711;28;99324;-85
2023/10/01 00:02:39;;;;;;;12.93;6.18;;;;;;;;;;4958793;28;93044;-85
2023/10/01 00:05:07;;;;;;;11.40;5.13;;;;;;;;;;4952105;28;92622;-85
2023/10/01 00:07:37;;;;;;;;;;;;;;;;;;4952998;28;92892;-85
2023/10/01 00:10:09;;;;;;;10.75;5.38;;;;;;;;;;4954441;28;93379;-85
2023/10/01 00:12:40;;;;;;;10.50;5.00;;;;;;;;;;4955083;28;92548;-85
2023/10/01 00:15:10;;;;;;;11.20;4.90;;;;;;;;;;4958493;28;93275;-85
2023/10/01 00:17:38;;;;;;;10.70;5.00;;;;;;;;;;4947800;28;92534;-84
2023/10/01 00:20:12;;;;;;;11.05;4.75;;;;;;;;;;4947758;28;92877;-86
2023/10/01 00:22:39;;;;;;;9.55;4.80;;;;;;;;;;4967530;28;95822;-85
2023/10/01 00:25:07;;;;;;;10.32;4.40;;;;;;;;;;4973741;28;92639;-85
2023/10/01 00:27:33;;;;;;;13.20;4.43;;;;;;;;;;4961383;28;92034;-86
2023/10/01 00:30:00;;;;;;;13.13;5.03;;;;;;;;;;4975050;28;92257;-86
2023/10/01 00:32:29;;;;;;;10.88;4.97;;;;;;;;;;4970716;28;91673;-86
2023/10/01 00:34:57;;;;;;;10.05;4.75;;;;;;;;;;4990612;28;94965;-86
2023/10/01 00:37:24;;;;;;;11.13;5.07;;;;;;;;;;4977387;28;91965;-86
2023/10/01 00:39:54;;;;;;;9.30;4.97;;;;;;;;;;4971028;28;95030;-85
2023/10/01 00:42:21;;;;;;;9.60;4.78;;;;;;;;;;4966609;28;92413;-86
2023/10/01 00:44:48;;;;;;;11.18;4.70;;;;;;;;;;4970375;28;92556;-86
2023/10/01 00:47:14;;;;;;;11.05;4.70;;;;;;;;;;4966071;28;94897;-86
2023/10/01 00:49:46;;;;;;;9.88;4.65;;;;;;;;;;4962326;28;92314;-86
2023/10/01 00:52:14;;;;;;;10.43;4.70;;;;;;;;;;4972721;28;92625;-86
2023/10/01 00:54:41;;;;;;;9.90;4.30;;;;;;;;;;4960991;28;95898;-86
2023/10/01 00:57:08;;;;;;;12.32;5.20;;;;;;;;;;4954391;28;95845;-85
2023/10/01 00:59:35;;;;;;;11.05;5.18;;;;;;;;;;4959680;28;92336;-84
2023/10/01 01:02:07;;;;;;;11.10;4.93;;;;;;;;;;4959962;28;92487;-87
2023/10/01 01:04:36;;;;;;;12.02;5.32;;;;;;;;;;4967242;28;91694;-87
2023/10/01 01:07:14;;;;;;;10.38;4.68;;;;;;;;;;4968498;28;92480;-88
2023/10/01 01:09:43;;;;;;;11.60;4.65;;;;;;;;;;4967897;28;93521;-86
2023/10/01 01:12:10;;;;;;;10.70;4.60;;;;;;;;;;4959508;28;95779;-85
2023/10/01 01:14:36;;;;;;;11.15;4.50;;;;;;;;;;4949446;28;95263;-86
2023/10/01 01:17:06;;;;;;;10.38;4.80;;;;;;;;;;4958558;28;94184;-86
2023/10/01 01:19:34;;;;;;;11.93;4.47;;;;;;;;;;4951142;28;92430;-86
2023/10/01 01:22:02;;;;;;;12.05;4.78;;;;;;;;;;4935068;28;95888;-85
2023/10/01 01:24:29;;;;;;;10.45;4.32;;;;;;;;;;4948286;28;92556;-86
2023/10/01 01:27:05;;;;;;;11.80;4.50;;;;;;;;;;4950801;28;92732;-86
2023/10/01 01:29:40;;;;;;;12.38;4.50;;;;;;;;;;4944365;28;94915;-85
2023/10/01 01:32:13;;;;;;;11.68;5.03;;;;;;;;;;4958310;28;92592;-84
2023/10/01 01:34:42;;;;;;;11.43;4.28;;;;;;;;;;4967378;28;93995;-86
2023/10/01 01:37:08;;;;;;;11.20;4.57;;;;;;;;;;4959627;28;95426;-86
2023/10/01 01:39:51;;;;;;;11.52;4.13;;;;;;;;;;4958459;28;93500;-86
2023/10/01 01:42:21;;;;;;;11.45;4.95;;;;;;;;;;4942484;28;97246;-86
2023/10/01 01:44:48;;;;;;;11.32;4.63;;;;;;;;;;4953962;28;92406;-86
2023/10/01 01:47:15;;;;;;;10.00;4.10;;;;;;;;;;4952449;28;100405;-86
2023/10/01 01:49:43;;;;;;;10.35;4.47;;;;;;;;;;4951956;28;94403;-86
2023/10/01 01:52:10;;;;;;;10.77;4.50;;;;;;;;;;4960723;28;92550;-85
2023/10/01 01:54:40;;;;;;;9.00;3.83;;;;;;;;;;4943500;28;92821;-87
2023/10/01 01:57:13;;;;;;;10.82;4.05;;;;;;;;;;4951476;28;95751;-87
2023/10/01 01:59:41;;;;;;;9.35;4.15;;;;;;;;;;4948193;28;92436;-85
2023/10/01 02:02:09;;;;;;;13.13;4.70;;;;;;;;;;4951808;28;95074;-86
2023/10/01 02:04:58;;;;;;;11.18;4.35;;;;;;;;;;4952088;28;93339;-85
2023/10/01 02:07:24;;;;;;;9.43;4.10;;;;;;;;;;4953498;28;95953;-86
2023/10/01 02:09:51;;;;;;;10.90;4.28;;;;;;;;;;4964267;28;92990;-85
2023/10/01 02:12:23;;;;;;;12.52;3.97;;;;;;;;;;4945038;28;92857;-85
2023/10/01 02:14:54;;;;;;;10.38;3.92;;;;;;;;;;4952295;28;93977;-86
2023/10/01 02:17:22;;;;;;;13.25;4.10;;;;;;;;;;4953202;28;93242;-85
2023/10/01 02:19:49;;;;;;;10.75;4.03;;;;;;;;;;4953427;28;91663;-86
2023/10/01 02:22:17;;;;;;;10.07;3.70;;;;;;;;;;4952588;28;95293;-86
2023/10/01 02:24:45;;;;;;;11.43;4.53;;;;;;;;;;4950848;28;95113;-85
2023/10/01 02:27:13;;;;;;;9.77;3.90;;;;;;;;;;4954435;28;95192;-87
2023/10/01 02:30:11;;;;;;;9.90;4.25;;;;;;;;;;4951701;28;95595;-86
2023/10/01 02:32:33;;;;;;;10.60;3.85;;;;;;;;;;4952882;28;92554;-85
2023/10/01 02:35:03;;;;;;;11.60;3.83;;;;;;;;;;4951416;28;95360;-83
2023/10/01 02:37:29;;;;;;;9.88;3.88;;;;;;;;;;4951987;28;93258;-83
2023/10/01 02:40:18;;;;;;;13.57;3.97;;;;;;;;;;4952060;28;92417;-84
2023/10/01 02:42:49;;;;;;;16.45;4.53;;;;;;;;;;4951922;28;92850;-83
2023/10/01 02:45:35;;;;;;;12.70;3.95;;;;;;;;;;4953439;28;92247;-87
2023/10/01 02:48:13;;;;;;;10.35;3.88;;;;;;;;;;4952200;28;92782;-84
2023/10/01 02:50:42;;;;;;;13.10;3.83;;;;;;;;;;4963647;28;92946;-85
2023/10/01 02:53:10;;;;;;;12.23;4.25;;;;;;;;;;4940047;28;94932;-86
2023/10/01 02:55:44;;;;;;;9.73;3.78;;;;;;;;;;4933685;28;95911;-85
2023/10/01 02:58:18;;;;;;;11.25;3.95;;;;;;;;;;4932208;28;98316;-85
2023/10/01 03:00:44;;;;;;;8.45;4.38;;;;;;;;;;4933429;28;92458;-85
2023/10/01 03:03:17;;;;;;;10.13;3.55;;;;;;;;;;4931244;28;95437;-85
2023/10/01 03:05:47;;;;;;;9.23;3.40;;;;;;;;;;4932851;28;93147;-85
2023/10/01 03:08:41;;;;;;;10.30;3.85;;;;;;;;;;4932229;28;92631;-86
2023/10/01 03:11:09;;;;;;;11.32;3.53;;;;;;;;;;4953843;28;93378;-85
2023/10/01 03:13:36;;;;;;;11.35;3.83;;;;;;;;;;4953844;28;95868;-86
2023/10/01 03:18:54;;;;;;;10.13;3.72;;;;;;;;;;4959427;28;95565;-87
2023/10/01 03:22:13;;;;;;;10.57;4.13;;;;;;;;;;4953257;28;92483;-86
2023/10/01 03:24:20;;;;;;;12.55;4.43;;;;;;;;;;4955839;28;97709;-87
2023/10/01 03:26:46;;;;;;;9.70;3.95;;;;;;;;;;4952977;28;93638;-86
2023/10/01 03:29:14;;;;;;;9.23;3.47;;;;;;;;;;4945218;28;92605;-86
2023/10/01 03:31:46;;;;;;;10.50;3.72;;;;;;;;;;4934736;28;93305;-85
2023/10/01 03:34:31;;;;;;;9.25;3.47;;;;;;;;;;4954857;28;99796;-88
2023/10/01 03:37:00;;;;;;;10.85;4.20;;;;;;;;;;4951155;28;91808;-85
2023/10/01 03:39:27;;;;;;;11.70;4.60;;;;;;;;;;4940842;28;93198;-84
2023/10/01 03:42:03;;;;;;;11.52;4.13;;;;;;;;;;4953832;28;92878;-85
2023/10/01 03:47:19;;;;;;;10.75;3.60;;;;;;;;;;4958706;28;94621;-85
2023/10/01 03:49:46;;;;;;;11.32;3.55;;;;;;;;;;4951638;28;92747;-82
2023/10/01 03:52:14;;;;;;;11.60;3.63;;;;;;;;;;4951826;28;92885;-83
2023/10/01 03:57:29;;;;;;;11.13;3.88;;;;;;;;;;4949337;28;92867;-83
2023/10/01 03:59:57;;;;;;;10.25;3.72;;;;;;;;;;4949294;28;95891;-83
2023/10/01 04:02:27;;;;;;;9.60;3.58;;;;;;;;;;4951828;28;91747;-83
2023/10/01 04:04:58;;;;;;;11.02;3.45;;;;;;;;;;4951397;28;94189;-83
2023/10/01 04:07:40;;;;;;;11.23;4.20;;;;;;;;;;4951257;28;93676;-83
2023/10/01 04:10:14;;;;;;;10.52;3.65;;;;;;;;;;4936718;28;94925;-83
2023/10/01 04:12:44;;;;;;;9.45;3.63;;;;;;;;;;4952403;28;95150;-83
2023/10/01 04:15:22;;;;;;;9.98;3.72;;;;;;;;;;4953641;28;93120;-83
2023/10/01 04:18:09;;;;;;;10.48;3.67;;;;;;;;;;4953718;28;92433;-83
2023/10/01 04:20:36;;;;;;;10.13;3.70;;;;;;;;;;4955010;28;93041;-84
2023/10/01 04:23:04;;;;;;;11.40;3.70;;;;;;;;;;4953390;28;93017;-83
2023/10/01 04:25:36;;;;;;;11.20;3.35;;;;;;;;;;4957377;28;92957;-83
2023/10/01 04:28:05;;;;;;;11.32;3.67;;;;;;;;;;4962353;28;91588;-82
2023/10/01 04:30:34;;;;;;;12.07;3.72;;;;;;;;;;4963542;28;92397;-83
2023/10/01 04:33:16;;;;;;;12.68;4.10;;;;;;;;;;4958387;28;93057;-83
2023/10/01 04:35:51;;;;;;;16.80;3.80;;;;;;;;;;4966756;28;95540;-84
2023/10/01 04:38:19;;;;;;;10.88;3.58;;;;;;;;;;4945725;28;92470;-83
2023/10/01 04:40:48;;;;;;;11.00;3.67;;;;;;;;;;4944511;28;94051;-83
2023/10/01 04:43:16;;;;;;;10.20;3.65;;;;;;;;;;4943613;28;94211;-82
2023/10/01 04:45:44;;;;;;;11.57;3.35;;;;;;;;;;4937591;28;92973;-84
2023/10/01 04:48:24;;;;;;;10.70;3.53;;;;;;;;;;4954076;28;96446;-83
2023/10/01 04:50:53;;;;;;;13.38;3.50;;;;;;;;;;4956739;28;92546;-84
2023/10/01 04:53:20;;;;;;;10.48;3.85;;;;;;;;;;4952068;28;93984;-84
2023/10/01 04:56:00;;;;;;;12.35;3.83;;;;;;;;;;4930650;28;94083;-82
2023/10/01 04:58:29;;;;;;;11.23;3.50;;;;;;;;;;4930779;28;94535;-83
2023/10/01 05:00:56;;;;;;;11.60;3.67;;;;;;;;;;4930091;28;94857;-83
2023/10/01 05:03:48;;;;;;;11.80;3.60;;;;;;;;;;4929812;28;93168;-83
2023/10/01 05:06:13;;;;;;;11.60;3.20;;;;;;;;;;4933223;28;92567;-83
2023/10/01 05:08:41;;;;;;;15.90;3.53;;;;;;;;;;4931329;28;97049;-83
2023/10/01 05:11:11;;;;;;;11.05;3.50;;;;;;;;;;4930892;28;93554;-83
2023/10/01 05:13:41;;;;;;;12.98;3.55;;;;;;;;;;4931988;28;93633;-83
2023/10/01 05:16:08;;;;;;;9.50;3.25;;;;;;;;;;4930409;28;93258;-83
2023/10/01 05:18:34;;;;;;;10.52;3.42;;;;;;;;;;4930534;28;92204;-83
2023/10/01 05:21:04;;;;;;;15.13;3.75;;;;;;;;;;4931312;28;92821;-83
2023/10/01 05:23:30;;;;;;;9.18;3.30;;;;;;;;;;4920405;28;93045;-83
2023/10/01 05:25:57;;;;;;;9.00;3.30;;;;;;;;;;4911842;28;95659;-82
2023/10/01 05:28:31;;;;;;;13.63;3.28;;;;;;;;;;4923022;28;95219;-83
2023/10/01 05:30:58;;;;;;;8.88;3.08;;;;;;;;;;4925982;28;92470;-83
2023/10/01 05:33:25;;;;;;;10.60;3.60;;;;;;;;;;4931589;28;93089;-83
2023/10/01 05:35:57;;;;;;;9.15;3.13;;;;;;;;;;4930710;28;92704;-82
2023/10/01 05:38:26;;;;;;;9.13;2.92;;;;;;;;;;4931677;28;92542;-83
2023/10/01 05:40:55;;;;;;;8.43;3.13;;;;;;;;;;4931508;28;92460;-83
2023/10/01 05:43:27;;;;;;;8.73;2.95;;;;;;;;;;4932196;28;93417;-83
2023/10/01 05:45:54;;;;;;;8.68;3.03;;;;;;;;;;4931709;28;92545;-83
2023/10/01 05:48:23;;;;;;;9.38;3.25;;;;;;;;;;4932573;28;92369;-82
2023/10/01 05:50:53;;;;;;;8.90;2.88;;;;;;;;;;4937963;28;96224;-84
2023/10/01 05:53:20;;;;;;;11.57;3.40;;;;;;;;;;4954164;28;95273;-84
2023/10/01 05:55:47;;;;;;;10.90;3.40;;;;;;;;;;4950383;28;92448;-84
2023/10/01 05:58:14;;;;;;;9.10;3.20;;;;;;;;;;4951000;28;92415;-85
2023/10/01 06:00:45;;;;;;;10.10;3.25;;;;;;;;;;4952061;28;92706;-84
2023/10/01 06:03:15;;;;;;;10.65;2.90;;;;;;;;;;4950815;28;93156;-84
2023/10/01 06:05:57;;;;;;;9.63;3.15;;;;;;;;;;4950941;28;92382;-84
2023/10/01 06:08:32;;;;;;;8.90;2.95;;;;;;;;;;4954802;28;97369;-82
2023/10/01 06:11:04;;;;;;;10.45;3.22;;;;;;;;;;4931198;28;93670;-83
2023/10/01 06:13:34;;;;;;;8.32;3.22;;;;;;;;;;4931433;28;92599;-83
2023/10/01 06:16:16;;;;;;;9.15;3.58;;;;;;;;;;4920803;28;96139;-83
2023/10/01 06:18:49;;;;;;;9.70;3.70;;;;;;;;;;4930268;28;92870;-83
2023/10/01 06:21:18;;;;;;;9.63;3.10;;;;;;;;;;4931718;28;93321;-83
2023/10/01 06:23:50;;;;;;;8.43;3.25;;;;;;;;;;4941473;28;93031;-84
2023/10/01 06:26:22;;;;;;;11.15;3.95;;;;;;;;;;4968293;28;92496;-84
2023/10/01 06:28:49;;;;;;;10.18;3.58;;;;;;;;;;4974543;28;92838;-85
2023/10/01 06:31:20;;;;;;;11.43;3.30;;;;;;;;;;4975338;28;94855;-85
2023/10/01 06:33:53;;;;;;;10.07;3.60;;;;;;;;;;4978385;28;92064;-84
2023/10/01 06:36:21;;;;;;;10.15;3.25;;;;;;;;;;4976249;28;92355;-85
2023/10/01 06:38:48;;;;;;;9.68;3.80;;;;;;;;;;4964592;28;92454;-85
2023/10/01 06:41:18;;;;;;;9.73;3.40;;;;;;;;;;4958208;28;95022;-85
2023/10/01 06:43:49;;;;;;;9.65;3.20;;;;;;;;;;4965744;28;92853;-85
2023/10/01 06:46:22;;;;;;;9.02;3.50;;;;;;;;;;4938765;28;92586;-85
2023/10/01 06:48:52;;;;;;;10.73;3.10;;;;;;;;;;4948086;28;93032;-84
2023/10/01 06:51:22;;;;;;;10.43;3.53;;;;;;;;;;4947627;28;93181;-86
2023/10/01 06:53:53;;;;;;;11.90;3.70;;;;;;;;;;4938387;28;92560;-85
2023/10/01 06:56:21;;;;;;;10.32;3.70;;;;;;;;;;4937095;28;95300;-84
2023/10/01 07:01:42;;;;;;;11.35;3.70;;;;;;;;;;4920847;28;92536;-84
2023/10/01 07:04:09;;;;;;;11.27;3.70;;;;;;;;;;4918454;28;92953;-84
2023/10/01 07:06:37;;;;;;;11.25;3.70;;;;;;;;;;4931745;28;94971;-85
2023/10/01 07:09:24;;;;;;;13.50;4.18;;;;;;;;;;4941063;28;95222;-84
2023/10/01 07:11:52;;;;;;;10.45;4.00;;;;;;;;;;4917388;28;93731;-85
2023/10/01 07:14:30;;;;;;;11.32;4.32;;;;;;;;;;4934959;28;92543;-85
2023/10/01 07:16:58;;;;;;;10.85;4.10;;;;;;;;;;4935105;28;92709;-84
2023/10/01 07:19:24;;;;;;;12.15;4.20;;;;;;;;;;4930965;28;93282;-84
2023/10/01 07:21:57;;;;;;;11.30;4.50;;;;;;;;;;4925797;28;96374;-83
2023/10/01 07:24:30;;;;;;;15.10;4.47;;;;;;;;;;4930700;28;92886;-82
2023/10/01 07:27:03;;;;;;;12.70;4.20;;;;;;;;;;4928655;28;93329;-84
2023/10/01 07:29:33;;;;;;;10.52;4.35;;;;;;;;;;4931566;28;93818;-81
2023/10/01 07:32:01;;;;;;;15.90;5.55;;;;;;;;;;4928029;28;94901;-81
2023/10/01 07:34:31;;;;;;;12.18;4.85;;;;;;;;;;4937615;28;92582;-82
2023/10/01 07:36:59;;;;;;;13.35;5.40;;;;;;;;;;4951138;28;93334;-82
2023/10/01 07:39:34;;;;;;;12.85;5.00;;;;;;;;;;4945666;28;92877;-83
2023/10/01 07:42:04;;;;;;;15.20;5.80;;;;;;;;;;4953643;28;93423;-84
2023/10/01 07:44:31;;;;;;;14.43;4.85;;;;;;;;;;4951101;28;93044;-82
2023/10/01 07:47:00;;;;;;;14.63;6.00;;;;;;;;;;4952530;28;92548;-84
2023/10/01 07:49:41;;;;;;;13.70;5.18;;;;;;;;;;4953566;28;93957;-83
2023/10/01 07:52:10;;;;;;;14.90;5.90;;;;;;;;;;4950475;28;94238;-83
2023/10/01 07:54:37;;;;;;;14.00;5.72;;;;;;;;;;4956331;28;92397;-82
2023/10/01 07:57:08;;;;;;;12.98;5.57;;;;;;;;;;4953548;28;94957;-82
2023/10/01 07:59:34;;;;;;;15.48;5.60;;;;;;;;;;4948384;28;96026;-82
2023/10/01 08:02:13;;;;;;;17.38;6.20;;;;;;;;;;4951891;28;92970;-82
2023/10/01 08:07:17;;;;;;;17.33;6.28;;;;;;;;;;4933294;28;92465;-82
2023/10/01 08:09:51;;;;;;;16.55;6.28;;;;;;;;;;4933911;28;92491;-82
2023/10/01 08:12:20;;;;;;;13.38;5.32;;;;;;;;;;4927134;28;99608;-80
2023/10/01 08:15:15;;;;;;;15.27;5.45;;;;;;;;;;4932704;28;91902;-81
2023/10/01 08:17:34;;;;;;;17.45;6.07;;;;;;;;;;4932251;28;93183;-80
2023/10/01 08:20:17;;;;;;;13.65;5.43;;;;;;;;;;4933799;28;93049;-82
2023/10/01 08:23:09;;;;;;;14.98;5.75;;;;;;;;;;4933964;28;95200;-80
2023/10/01 08:25:34;;;;;;;16.55;6.20;;;;;;;;;;4940708;28;94266;-79
2023/10/01 08:30:43;;;;;;;15.38;6.22;;;;;;;;;;4932027;28;92534;-80
2023/10/01 08:33:20;;;;;;;15.93;5.45;;;;;;;;;;4931324;28;93029;-79
2023/10/01 08:38:36;;;;;;;18.25;6.38;;;;;;;;;;4916353;28;93831;-79
2023/10/01 08:41:05;;;;;;;15.35;6.15;;;;;;;;;;4946515;28;92363;-80
2023/10/01 08:43:35;;;;;;;15.80;5.75;;;;;;;;;;4949352;28;94732;-81
2023/10/01 08:46:15;;;;;;;16.40;6.47;;;;;;;;;;4949313;28;93546;-81
2023/10/01 08:48:42;;;;;;;16.33;6.30;;;;;;;;;;4950690;28;95124;-79
2023/10/01 08:51:12;;;;;;;16.42;6.13;;;;;;;;;;4949852;28;95176;-81
2023/10/01 08:53:42;;;;;;;16.33;6.20;;;;;;;;;;4949608;28;93684;-80
2023/10/01 08:56:13;;;;;;;13.93;5.68;;;;;;;;;;4945711;28;92588;-81
2023/10/01 08:58:49;;;;;;;16.27;5.80;;;;;;;;;;4942888;28;93923;-81
2023/10/01 09:01:20;;;;;;;15.35;6.03;;;;;;;;;;4938472;28;93036;-81
2023/10/01 09:03:48;;;;;;;17.27;5.60;;;;;;;;;;4949368;28;94027;-81
2023/10/01 09:06:27;;;;;;;14.65;5.00;;;;;;;;;;4950804;28;92810;-81
2023/10/01 09:09:19;;;;;;;14.70;5.35;;;;;;;;;;4949747;28;92549;-81
2023/10/01 09:11:49;;;;;;;15.40;6.15;;;;;;;;;;4941854;28;92550;-80
2023/10/01 09:14:25;;;;;;;15.23;5.75;;;;;;;;;;4947789;28;95690;-81
2023/10/01 09:17:00;;;;;;;13.77;5.68;;;;;;;;;;4949047;28;92572;-80
2023/10/01 09:19:42;;;;;;;13.60;5.15;;;;;;;;;;4949554;28;92824;-80
2023/10/01 09:22:15;;;;;;;14.05;5.68;;;;;;;;;;4947516;28;94125;-80
2023/10/01 09:24:55;;;;;;;17.13;6.20;;;;;;;;;;4948470;28;92480;-81
2023/10/01 09:27:28;;;;;;;17.33;6.32;;;;;;;;;;4949559;28;92821;-82
2023/10/01 09:32:51;;;;;;;17.17;6.05;;;;;;;;;;4950251;28;91927;-81
2023/10/01 09:35:30;;;;;;;18.58;5.80;;;;;;;;;;4951952;28;92449;-80
2023/10/01 09:38:10;;;;;;;15.80;5.70;;;;;;;;;;4933444;28;92514;-80
2023/10/01 09:40:44;;;;;;;15.30;6.05;;;;;;;;;;4947768;28;94790;-80
2023/10/01 09:43:18;;;;;;;16.67;5.95;;;;;;;;;;4949661;28;92492;-81
2023/10/01 09:45:46;;;;;;;14.23;5.53;;;;;;;;;;4949291;28;92356;-81
2023/10/01 09:50:58;;;;;;;15.45;5.60;;;;;;;;;;4954629;28;103542;-81
2023/10/01 09:53:29;;;;;;;13.95;5.53;;;;;;;;;;4941502;28;93504;-82
2023/10/01 09:55:59;;;;;;;17.05;5.78;;;;;;;;;;4928314;28;92664;-81
2023/10/01 09:58:25;;;;;;;13.98;5.95;;;;;;;;;;4931745;28;93519;-82
2023/10/01 10:01:08;;;;;;;13.90;5.95;;;;;;;;;;4939963;28;92517;-81
2023/10/01 10:03:38;;;;;;;15.50;5.18;;;;;;;;;;4931010;28;93014;-82
2023/10/01 10:06:08;;;;;;;16.92;6.00;;;;;;;;;;4925163;28;94906;-82
2023/10/01 10:08:35;;;;;;;16.48;5.75;;;;;;;;;;4959792;28;98658;-82
2023/10/01 10:11:06;;;;;;;16.00;5.88;;;;;;;;;;4934358;28;93071;-81
2023/10/01 10:19:08;;;;;;;14.98;5.97;;;;;;;;;;4951946;28;93562;-81
2023/10/01 10:24:31;;;;;;;14.93;5.53;;;;;;;;;;4937516;28;97308;-82
2023/10/01 10:27:00;;;;;;;13.85;5.05;;;;;;;;;;4950715;28;93296;-81
2023/10/01 10:32:31;;;;;;;15.10;5.55;;;;;;;;;;4947738;28;100118;-83
2023/10/01 10:35:04;;;;;;;14.65;6.18;;;;;;;;;;4944367;28;92907;-82
2023/10/01 10:37:37;;;;;;;16.60;5.85;;;;;;;;;;4949945;28;92981;-83
2023/10/01 10:43:03;;;;;;;14.18;5.32;;;;;;;;;;4956454;28;92886;-82
2023/10/01 10:45:46;;;;;;;16.50;5.82;;;;;;;;;;4946015;28;93628;-82
2023/10/01 10:48:16;;;;;;;15.63;5.85;;;;;;;;;;4944125;28;92474;-82
2023/10/01 10:50:50;;;;;;;15.05;5.90;;;;;;;;;;4949121;28;92834;-82
2023/10/01 10:53:26;;;;;;;15.07;5.47;;;;;;;;;;4944093;28;93466;-83
2023/10/01 10:55:53;;;;;;;15.18;5.90;;;;;;;;;;4947476;28;92522;-83
2023/10/01 10:58:20;;;;;;;17.10;6.22;;;;;;;;;;4952374;28;95095;-83
2023/10/01 11:00:49;;;;;;;16.00;6.60;;;;;;;;;;4952732;28;93276;-84
2023/10/01 11:03:16;;;;;;;15.65;6.40;;;;;;;;;;4949824;28;92599;-84
2023/10/01 11:05:51;;;;;;;13.65;5.75;;;;;;;;;;4952803;28;92666;-83
2023/10/01 11:08:27;;;;;;;15.73;6.05;;;;;;;;;;4952175;28;92738;-84
2023/10/01 11:10:54;;;;;;;17.10;6.25;;;;;;;;;;4948375;28;94460;-83
2023/10/01 11:13:45;;;;;;;15.70;6.30;;;;;;;;;;4947296;28;93844;-83
2023/10/01 11:16:15;;;;;;;17.38;6.13;;;;;;;;;;4946443;28;92156;-84
2023/10/01 11:18:45;;;;;;;14.02;5.75;;;;;;;;;;4935396;28;92880;-83
2023/10/01 11:21:20;;;;;;;14.73;6.32;;;;;;;;;;4945172;28;93184;-83
2023/10/01 11:23:49;;;;;;;15.73;6.22;;;;;;;;;;4948902;28;94763;-85
2023/10/01 11:26:26;;;;;;;15.35;6.70;;;;;;;;;;4951430;28;95298;-84
2023/10/01 11:28:53;;;;;;;15.65;6.35;;;;;;;;;;4950392;28;92937;-86
2023/10/01 11:31:31;;;;;;;17.77;7.10;;;;;;;;;;4951408;28;92964;-84
2023/10/01 11:33:59;;;;;;;18.58;7.68;;;;;;;;;;4950272;28;93708;-84
2023/10/01 11:36:35;;;;;;;17.63;7.05;;;;;;;;;;4945123;28;93041;-84
2023/10/01 11:39:03;;;;;;;18.92;7.18;;;;;;;;;;4942924;28;93912;-84
2023/10/01 11:41:41;;;;;;;17.13;7.07;;;;;;;;;;4950376;28;92545;-84
2023/10/01 11:44:09;;;;;;;17.52;7.25;;;;;;;;;;4949646;28;92559;-84
2023/10/01 11:46:39;;;;;;;17.23;7.43;;;;;;;;;;4950847;28;93025;-84
2023/10/01 11:49:06;;;;;;;17.60;7.25;;;;;;;;;;4949594;28;95599;-84
2023/10/01 11:51:38;;;;;;;17.65;7.30;;;;;;;;;;4945805;28;92547;-85
2023/10/01 11:54:14;;;;;;;18.23;7.25;;;;;;;;;;4952747;28;93096;-85
2023/10/01 11:56:42;;;;;;;18.95;7.82;;;;;;;;;;4969093;28;92433;-83
2023/10/01 11:59:11;;;;;;;19.55;7.70;;;;;;;;;;4953211;28;92463;-83
2023/10/01 12:01:46;;;;;;;17.80;7.00;;;;;;;;;;4950690;28;93792;-82
2023/10/01 12:04:21;;;;;;;17.73;7.35;;;;;;;;;;4949849;28;92535;-84
2023/10/01 12:06:49;;;;;;;18.00;7.13;;;;;;;;;;4951550;28;92789;-84
2023/10/01 12:09:18;;;;;;;16.30;6.55;;;;;;;;;;4950849;28;93415;-85
2023/10/01 12:12:02;;;;;;;16.27;6.53;;;;;;;;;;4940516;28;92610;-84
2023/10/01 12:14:39;;;;;;;17.13;7.45;;;;;;;;;;4939836;28;98510;-84
2023/10/01 12:17:06;;;;;;;17.77;7.32;;;;;;;;;;4964028;28;92418;-84
2023/10/01 12:19:33;;;;;;;17.20;6.65;;;;;;;;;;4951115;28;93380;-84
2023/10/01 12:22:05;;;;;;;17.88;7.40;;;;;;;;;;4947539;28;92632;-86
2023/10/01 12:24:39;;;;;;;19.52;7.95;;;;;;;;;;4944437;28;92983;-85
2023/10/01 12:27:07;;;;;;;17.83;7.50;;;;;;;;;;4949914;28;92859;-84
2023/10/01 12:29:43;;;;;;;18.38;7.50;;;;;;;;;;4952033;28;92814;-85
2023/10/01 12:32:10;;;;;;;17.83;7.03;;;;;;;;;;4946150;28;91749;-81
2023/10/01 12:34:37;;;;;;;18.00;7.50;;;;;;;;;;4954415;28;92868;-82
2023/10/01 12:39:50;;;;;;;17.95;7.03;;;;;;;;;;4945851;28;95608;-83
2023/10/01 12:42:17;;;;;;;15.98;6.75;;;;;;;;;;4939904;28;93413;-85
2023/10/01 12:44:43;;;;;;;15.40;6.07;;;;;;;;;;4947244;28;92539;-84
2023/10/01 12:47:15;;;;;;;14.45;5.75;;;;;;;;;;4949519;28;99509;-84
2023/10/01 12:49:58;;;;;;;15.98;5.85;;;;;;;;;;4949668;28;93298;-84
2023/10/01 12:52:30;;;;;;;14.63;5.85;;;;;;;;;;4934425;28;92675;-83
2023/10/01 12:55:00;;;;;;;13.20;5.78;;;;;;;;;;4924767;28;92934;-84
2023/10/01 12:57:33;;;;;;;17.52;6.00;;;;;;;;;;4929494;28;91702;-83
2023/10/01 13:02:46;;;;;;;16.27;5.90;;;;;;;;;;4931109;28;94117;-85
2023/10/01 13:05:16;;;;;;;15.60;5.88;;;;;;;;;;4928787;28;95185;-86
2023/10/01 13:07:45;;;;;;;13.80;5.47;;;;;;;;;;4917231;28;95208;-84
2023/10/01 13:10:13;;;;;;;15.65;5.57;;;;;;;;;;4929327;28;97570;-84
2023/10/01 13:12:39;;;;;;;;;;;;;;;;;;4930490;28;92731;-85
2023/10/01 13:15:15;;;;;;;15.25;5.90;;;;;;;;;;4931831;28;93337;-84
2023/10/01 13:17:46;;;;;;;15.90;6.13;;;;;;;;;;4929624;28;92500;-83
2023/10/01 13:20:22;;;;;;;16.98;6.53;;;;;;;;;;4951753;28;92530;-82
2023/10/01 13:22:52;;;;;;;13.68;5.15;;;;;;;;;;4962752;28;93072;-82
2023/10/01 13:25:24;;;;;;;14.27;5.18;;;;;;;;;;4949069;28;92644;-81
2023/10/01 13:28:07;;;;;;;13.65;5.60;;;;;;;;;;4947884;28;92906;-81
2023/10/01 13:31:03;;;;;;;12.52;5.15;;;;;;;;;;4944635;28;96740;-81
2023/10/01 13:33:23;;;;;;;13.45;4.93;;;;;;;;;;4960131;28;92808;-81
2023/10/01 13:35:50;;;;;;;12.40;4.70;;;;;;;;;;4950504;28;92828;-81
2023/10/01 14:08:43;;;;;;;10.10;4.47;;;;;;;;;;4954629;28;97782;-82
2023/10/01 14:11:10;;;;;;;11.50;4.32;;;;;;;;;;4950554;28;92946;-81
2023/10/01 14:13:37;;;;;;;10.48;4.22;;;;;;;;;;4949248;28;94499;-81
2023/10/01 14:16:16;;;;;;;10.77;4.22;;;;;;;;;;4950777;28;92021;-82
2023/10/01 14:19:13;;;;;;;10.50;3.95;;;;;;;;;;4951328;28;93077;-81
2023/10/01 14:21:40;;;;;;;10.80;4.05;;;;;;;;;;4951297;28;93652;-81
2023/10/01 14:24:21;;;;;;;11.45;4.65;;;;;;;;;;4952390;28;94832;-82
2023/10/01 14:26:50;;;;;;;11.93;4.20;;;;;;;;;;4964202;28;93912;-81
2023/10/01 14:29:22;;;;;;;9.63;4.15;;;;;;;;;;4958558;28;94637;-82
2023/10/01 14:31:52;;;;;;;10.60;4.22;;;;;;;;;;4959517;28;92345;-81
2023/10/01 14:34:20;;;;;;;9.73;4.00;;;;;;;;;;4962870;28;92540;-81
2023/10/01 14:36:47;;;;;;;11.15;4.13;;;;;;;;;;4957669;28;92752;-81
2023/10/01 14:39:14;;;;;;;10.05;4.18;;;;;;;;;;4957735;28;92891;-81
2023/10/01 14:41:42;;;;;;;10.77;4.50;;;;;;;;;;4958470;28;92421;-81
2023/10/01 14:44:08;;;;;;;10.48;4.03;;;;;;;;;;4961398;28;92646;-81
2023/10/01 14:46:38;;;;;;;10.50;4.43;;;;;;;;;;4969609;28;92332;-81
2023/10/01 14:49:05;;;;;;;11.07;4.50;;;;;;;;;;4976962;28;94725;-82
2023/10/01 14:51:32;;;;;;;10.18;4.30;;;;;;;;;;4958820;28;93154;-82
2023/10/01 14:53:59;;;;;;;;;;;;;;;;;;4952242;28;93404;-82
2023/10/01 14:56:30;;;;;;;10.40;3.97;;;;;;;;;;4954137;28;92499;-81
2023/10/01 14:59:01;;;;;;;10.70;4.32;;;;;;;;;;4953384;28;93397;-82
2023/10/01 15:01:36;;;;;;;10.20;4.40;;;;;;;;;;4954271;28;93525;-81
2023/10/01 15:04:17;;;;;;;10.88;4.25;;;;;;;;;;4954916;28;92917;-82
2023/10/01 15:06:57;;;;;;;9.85;4.13;;;;;;;;;;4939857;28;92903;-81
2023/10/01 15:09:25;;;;;;;9.80;4.03;;;;;;;;;;4947216;28;95592;-81
2023/10/01 15:11:54;;;;;;;9.85;4.30;;;;;;;;;;4930197;28;92655;-81
2023/10/01 15:14:26;;;;;;;9.95;3.85;;;;;;;;;;4934015;28;94819;-82
2023/10/01 15:16:54;;;;;;;10.20;3.88;;;;;;;;;;4931897;28;92524;-81
2023/10/01 15:19:46;;;;;;;9.90;4.40;;;;;;;;;;4940967;28;93206;-82
2023/10/01 15:22:18;;;;;;;10.20;4.10;;;;;;;;;;4933196;28;97635;-81
2023/10/01 15:24:46;;;;;;;9.40;3.97;;;;;;;;;;4952999;28;92496;-83
2023/10/01 15:27:13;;;;;;;10.32;4.00;;;;;;;;;;4940580;28;92429;-81
2023/10/01 15:29:42;;;;;;;11.00;4.50;;;;;;;;;;4943881;28;99901;-81
2023/10/01 15:32:16;;;;;;;10.20;4.43;;;;;;;;;;4938289;28;91814;-81
2023/10/01 15:34:44;;;;;;;10.07;4.25;;;;;;;;;;4949381;28;93110;-81
2023/10/01 15:37:13;;;;;;;;;;;;;;;;;;4950139;28;92500;-82
2023/10/01 15:39:41;;;;;;;10.65;4.30;;;;;;;;;;4949337;28;95235;-82
2023/10/01 15:42:11;;;;;;;10.95;4.65;;;;;;;;;;4949362;28;93966;-82
2023/10/01 15:44:47;;;;;;;10.77;3.78;;;;;;;;;;4949569;28;92564;-82
2023/10/01 15:47:25;;;;;;;10.25;4.38;;;;;;;;;;4949125;28;95058;-82
2023/10/01 15:49:56;;;;;;;11.38;4.55;;;;;;;;;;4948951;28;92803;-81
2023/10/01 15:52:23;;;;;;;10.43;4.20;;;;;;;;;;4954462;28;92710;-82
2023/10/01 15:54:50;;;;;;;11.10;4.78;;;;;;;;;;4947773;28;92952;-82
2023/10/01 15:57:17;;;;;;;11.90;5.00;;;;;;;;;;4962842;28;92617;-82
2023/10/01 15:59:43;;;;;;;11.75;4.50;;;;;;;;;;4951751;28;92773;-81
2023/10/01 16:02:18;;;;;;;12.30;4.70;;;;;;;;;;4946963;28;92714;-80
2023/10/01 16:04:46;;;;;;;10.80;4.72;;;;;;;;;;4947287;28;94943;-81
2023/10/01 16:07:13;;;;;;;12.90;4.53;;;;;;;;;;4950335;28;95350;-80
2023/10/01 16:09:39;;;;;;;12.80;5.03;;;;;;;;;;4949976;28;93053;-79
2023/10/01 16:12:10;;;;;;;13.02;5.00;;;;;;;;;;4948907;28;92812;-80